createdAt,value
2018-07-13T00:04:41.285Z,17.30
2018-07-13T00:07:09.697Z,17.40
2018-07-13T00:12:06.332Z,17.40
2018-07-13T00:14:34.587Z,17.40
2018-07-13T00:17:02.962Z,17.40
2018-07-13T00:19:31.199Z,17.40
2018-07-13T00:21:59.428Z,17.30
2018-07-13T00:24:27.770Z,17.40
2018-07-13T00:26:56.034Z,17.40
2018-07-13T00:29:24.325Z,17.30
2018-07-13T00:34:20.573Z,17.20
2018-07-13T00:36:48.850Z,17.10
2018-07-13T00:39:17.174Z,17.20
2018-07-13T00:41:45.556Z,17.30
2018-07-13T00:44:14.289Z,17.30
2018-07-13T00:46:42.500Z,17.30
2018-07-13T00:49:10.730Z,17.30
2018-07-13T00:51:39.001Z,17.30
2018-07-13T00:54:07.289Z,17.30
2018-07-13T00:56:35.611Z,17.30
2018-07-13T00:59:03.986Z,17.30
2018-07-13T01:01:32.334Z,17.30
2018-07-13T01:04:00.677Z,17.30
2018-07-13T01:06:28.943Z,17.20
2018-07-13T01:08:57.188Z,17.20
2018-07-13T01:11:25.522Z,17.20
2018-07-13T01:13:53.742Z,17.20
2018-07-13T01:18:50.054Z,17.30
2018-07-13T01:21:18.294Z,17.20
2018-07-13T01:23:46.537Z,17.30
2018-07-13T01:26:14.794Z,17.40
2018-07-13T01:28:43.157Z,17.30
2018-07-13T01:31:11.499Z,17.30
2018-07-13T01:33:39.746Z,17.30
2018-07-13T01:36:08.046Z,17.30
2018-07-13T01:38:36.399Z,17.30
2018-07-13T01:41:04.737Z,17.20
2018-07-13T01:43:33.033Z,17.30
2018-07-13T01:46:01.427Z,17.30
2018-07-13T01:48:29.681Z,17.20
2018-07-13T01:50:57.938Z,17.30
2018-07-13T01:55:54.215Z,17.20
2018-07-13T01:58:22.550Z,17.10
2018-07-13T02:00:50.945Z,17.10
2018-07-13T02:03:19.257Z,17.20
2018-07-13T02:05:47.849Z,17.30
2018-07-13T02:08:16.093Z,17.30
2018-07-13T02:10:44.370Z,17.30
2018-07-13T02:13:12.639Z,17.20
2018-07-13T02:15:40.941Z,17.30
2018-07-13T02:18:09.252Z,17.30
2018-07-13T02:20:37.513Z,17.30
2018-07-13T02:23:05.845Z,17.20
2018-07-13T02:25:34.106Z,17.20
2018-07-13T02:28:02.492Z,17.20
2018-07-13T02:30:30.831Z,17.20
2018-07-13T02:32:59.210Z,17.20
2018-07-13T02:35:27.467Z,17.20
2018-07-13T02:37:55.733Z,17.20
2018-07-13T02:40:23.974Z,17.20
2018-07-13T02:42:52.285Z,17.20
2018-07-13T02:45:20.570Z,17.10
2018-07-13T02:47:48.869Z,17.10
2018-07-13T02:50:17.141Z,17.00
2018-07-13T02:52:45.420Z,17.10
2018-07-13T02:55:13.695Z,17.00
2018-07-13T02:57:41.924Z,17.00
2018-07-13T03:00:10.170Z,17.00
2018-07-13T03:02:38.490Z,17.00
2018-07-13T03:05:07.054Z,17.00
2018-07-13T03:07:35.287Z,17.00
2018-07-13T03:12:31.510Z,17.00
2018-07-13T03:14:59.810Z,17.00
2018-07-13T03:17:28.099Z,17.00
2018-07-13T03:19:56.339Z,17.00
2018-07-13T03:22:24.653Z,17.00
2018-07-13T03:24:52.894Z,17.00
2018-07-13T03:29:49.245Z,17.10
2018-07-13T03:32:17.542Z,17.10
2018-07-13T03:34:45.798Z,17.20
2018-07-13T03:39:42.446Z,17.20
2018-07-13T03:42:10.934Z,17.20
2018-07-13T03:44:39.202Z,17.20
2018-07-13T03:47:07.477Z,17.20
2018-07-13T03:52:03.813Z,17.30
2018-07-13T03:54:32.101Z,17.30
2018-07-13T03:57:00.366Z,17.10
2018-07-13T04:01:56.639Z,17.20
2018-07-13T04:04:24.997Z,17.20
2018-07-13T04:06:53.354Z,17.30
2018-07-13T04:09:21.643Z,17.40
2018-07-13T04:11:49.885Z,17.30
2018-07-13T04:14:18.163Z,17.40
2018-07-13T04:16:46.568Z,17.40
2018-07-13T04:19:14.883Z,17.40
2018-07-13T04:24:11.334Z,17.20
2018-07-13T04:26:40.146Z,17.30
2018-07-13T04:29:08.521Z,17.30
2018-07-13T04:31:36.787Z,17.30
2018-07-13T04:34:05.117Z,17.30
2018-07-13T04:46:25.756Z,17.50
2018-07-13T04:48:54.010Z,17.50
2018-07-13T04:51:22.299Z,17.50
2018-07-13T04:53:50.546Z,17.50
2018-07-13T04:56:18.838Z,17.50
2018-07-13T05:01:17.058Z,17.40
2018-07-13T05:03:45.654Z,17.40
2018-07-13T05:06:13.906Z,17.40
2018-07-13T05:08:42.310Z,17.40
2018-07-13T05:11:10.619Z,17.50
2018-07-13T05:13:38.905Z,17.80
2018-07-13T05:16:07.165Z,17.90
2018-07-13T05:18:35.517Z,18.10
2018-07-13T05:21:03.829Z,18.20
2018-07-13T05:23:32.150Z,18.20
2018-07-13T05:26:00.549Z,18.10
2018-07-13T05:28:28.834Z,18.00
2018-07-13T05:30:57.131Z,18.00
2018-07-13T05:33:25.586Z,18.00
2018-07-13T05:38:22.028Z,18.20
2018-07-13T05:40:50.231Z,18.40
2018-07-13T05:45:46.706Z,18.50
2018-07-13T05:48:15.295Z,18.40
2018-07-13T05:50:43.602Z,18.40
2018-07-13T05:53:11.886Z,18.50
2018-07-13T05:55:40.329Z,18.60
2018-07-13T05:58:08.642Z,18.50
2018-07-13T06:00:36.981Z,18.50
2018-07-13T06:03:05.242Z,18.50
2018-07-13T06:08:01.631Z,18.70
2018-07-13T06:10:29.914Z,18.80
2018-07-13T06:12:58.156Z,18.90
2018-07-13T06:17:54.539Z,19.00
2018-07-13T06:20:22.797Z,19.10
2018-07-13T06:22:51.039Z,19.00
2018-07-13T06:25:19.278Z,19.10
2018-07-13T06:27:47.538Z,19.40
2018-07-13T06:30:15.789Z,19.30
2018-07-13T06:32:44.090Z,19.40
2018-07-13T06:35:12.307Z,19.50
2018-07-13T06:37:40.565Z,19.50
2018-07-13T06:40:08.933Z,19.70
2018-07-13T06:42:37.169Z,19.90
2018-07-13T06:45:05.434Z,20.10
2018-07-13T06:50:02.012Z,20.70
2018-07-13T06:52:30.262Z,21.10
2018-07-13T06:57:37.971Z,21.10
2018-07-13T07:01:10.025Z,20.70
2018-07-13T07:04:41.673Z,20.60
2018-07-13T07:07:15.324Z,20.70
2018-07-13T07:09:45.792Z,20.50
2018-07-13T07:14:48.110Z,20.40
2018-07-13T07:19:44.379Z,20.10
2018-07-13T07:22:12.725Z,19.90
2018-07-13T07:24:41.217Z,20.10
2018-07-13T07:27:09.530Z,20.00
2018-07-13T07:29:37.869Z,20.10
2018-07-13T07:34:34.100Z,20.40
2018-07-13T07:37:02.741Z,20.40
2018-07-13T07:39:30.996Z,20.40
2018-07-13T07:41:59.226Z,20.50
2018-07-13T07:46:55.445Z,21.50
2018-07-13T07:49:23.723Z,21.70
2018-07-13T07:51:52.027Z,21.70
2018-07-13T07:54:20.322Z,22.00
2018-07-13T07:56:48.601Z,21.90
2018-07-13T08:01:44.970Z,21.50
2018-07-13T08:04:13.286Z,22.00
2018-07-13T08:06:41.735Z,22.00
2018-07-13T08:09:09.780Z,22.60
2018-07-13T08:11:38.133Z,22.50
2018-07-13T08:14:07.088Z,22.40
2018-07-13T08:19:03.327Z,22.80
2018-07-13T08:21:31.578Z,23.10
2018-07-13T08:23:59.809Z,23.00
2018-07-13T08:26:28.213Z,23.20
2018-07-13T08:28:56.495Z,23.70
2018-07-13T08:31:24.757Z,23.60
2018-07-13T08:33:53.058Z,23.50
2018-07-13T08:36:21.281Z,23.80
2018-07-13T08:38:49.626Z,23.60
2018-07-13T08:41:17.927Z,23.60
2018-07-13T08:43:46.149Z,24.80
2018-07-13T08:46:14.434Z,24.80
2018-07-13T08:48:42.695Z,24.80
2018-07-13T08:51:11.006Z,25.60
2018-07-13T08:53:39.191Z,25.70
2018-07-13T08:56:07.520Z,25.70
2018-07-13T08:58:35.757Z,25.70
2018-07-13T09:01:04.112Z,26.10
2018-07-13T09:03:32.375Z,25.60
2018-07-13T09:06:00.631Z,25.70
2018-07-13T09:08:28.951Z,25.30
2018-07-13T09:10:57.256Z,25.30
2018-07-13T09:13:25.470Z,25.60
2018-07-13T09:15:54.117Z,25.80
2018-07-13T09:18:22.437Z,25.80
2018-07-13T09:23:18.648Z,25.80
2018-07-13T09:25:46.934Z,25.50
2018-07-13T09:28:15.262Z,25.60
2018-07-13T09:30:43.527Z,25.80
2018-07-13T09:33:11.777Z,25.70
2018-07-13T09:35:40.045Z,25.70
2018-07-13T09:38:08.375Z,25.80
2018-07-13T09:40:36.645Z,25.80
2018-07-13T09:43:04.910Z,25.30
2018-07-13T09:45:33.305Z,25.20
2018-07-13T09:48:01.537Z,25.60
2018-07-13T09:50:29.895Z,25.70
2018-07-13T09:52:58.211Z,25.70
2018-07-13T09:55:26.454Z,26.10
2018-07-13T09:57:54.710Z,25.80
2018-07-13T10:00:26.509Z,25.40
2018-07-13T10:02:54.795Z,25.30
2018-07-13T10:07:51.098Z,25.80
2018-07-13T10:10:19.433Z,25.90
2018-07-13T10:12:47.722Z,26.40
2018-07-13T10:15:15.985Z,26.50
2018-07-13T10:17:44.290Z,26.30
2018-07-13T10:20:12.599Z,26.80
2018-07-13T10:22:40.844Z,26.60
2018-07-13T10:25:09.090Z,26.70
2018-07-13T10:27:38.137Z,26.70
2018-07-13T10:30:09.280Z,26.40
2018-07-13T10:32:37.546Z,26.40
2018-07-13T10:35:07.579Z,26.50
2018-07-13T10:37:35.917Z,26.60
2018-07-13T10:40:04.330Z,26.40
2018-07-13T10:42:32.597Z,26.50
2018-07-13T10:45:00.955Z,26.90
2018-07-13T10:49:57.199Z,26.80
2018-07-13T10:52:25.486Z,26.70
2018-07-13T10:54:53.713Z,26.80
2018-07-13T10:57:22.050Z,26.50
2018-07-13T10:59:50.293Z,26.90
2018-07-13T11:02:18.661Z,26.70
2018-07-13T11:04:46.990Z,26.50
2018-07-13T11:07:15.316Z,26.60
2018-07-13T11:09:43.639Z,26.60
2018-07-13T11:12:11.955Z,26.60
2018-07-13T11:14:40.226Z,26.90
2018-07-13T11:17:08.561Z,27.10
2018-07-13T11:19:36.883Z,27.30
2018-07-13T11:22:05.177Z,27.10
2018-07-13T11:24:33.533Z,27.10
2018-07-13T11:27:01.893Z,26.80
2018-07-13T11:29:30.198Z,27.10
2018-07-13T11:31:58.735Z,27.50
2018-07-13T11:34:27.214Z,27.10
2018-07-13T11:36:55.530Z,26.60
2018-07-13T11:39:23.789Z,26.00
2018-07-13T11:46:48.059Z,26.70
2018-07-13T11:49:16.710Z,26.90
2018-07-13T11:51:45.150Z,27.00
2018-07-13T11:54:13.473Z,27.00
2018-07-13T11:56:41.718Z,27.10
2018-07-13T11:59:09.934Z,26.70
2018-07-13T12:01:38.246Z,26.70
2018-07-13T12:04:06.574Z,27.00
2018-07-13T12:06:34.923Z,27.00
2018-07-13T12:09:03.174Z,27.10
2018-07-13T12:11:31.438Z,27.10
2018-07-13T12:13:59.717Z,26.90
2018-07-13T12:16:28.064Z,27.00
2018-07-13T12:18:56.272Z,27.20
2018-07-13T12:21:24.501Z,27.10
2018-07-13T12:26:20.763Z,27.10
2018-07-13T12:31:17.189Z,26.80
2018-07-13T12:33:45.566Z,26.50
2018-07-13T12:36:13.810Z,26.50
2018-07-13T12:38:42.255Z,26.50
2018-07-13T12:41:10.586Z,26.90
2018-07-13T12:43:38.829Z,27.00
2018-07-13T12:46:07.216Z,27.10
2018-07-13T12:48:35.473Z,27.20
2018-07-13T12:51:03.985Z,27.10
2018-07-13T12:53:32.215Z,26.70
2018-07-13T12:56:00.468Z,26.60
2018-07-13T12:58:28.702Z,26.70
2018-07-13T13:00:57.011Z,26.80
2018-07-13T13:05:53.563Z,27.40
2018-07-13T13:08:21.847Z,27.10
2018-07-13T13:10:50.205Z,27.00
2018-07-13T13:15:46.577Z,27.40
2018-07-13T13:18:14.870Z,27.60
2018-07-13T13:23:11.100Z,27.80
2018-07-13T13:25:39.494Z,27.10
2018-07-13T13:28:07.938Z,26.70
2018-07-13T13:30:36.374Z,26.80
2018-07-13T13:33:04.989Z,26.50
2018-07-13T13:35:33.281Z,26.40
2018-07-13T13:38:01.491Z,26.40
2018-07-13T13:40:29.798Z,26.30
2018-07-13T13:45:26.022Z,26.40
2018-07-13T13:47:54.257Z,26.80
2018-07-13T13:50:22.558Z,26.80
2018-07-13T13:52:50.813Z,26.40
2018-07-13T13:55:19.184Z,26.70
2018-07-13T13:57:47.485Z,26.70
2018-07-13T14:00:15.762Z,27.10
2018-07-13T14:02:44.118Z,27.30
2018-07-13T14:05:12.372Z,27.10
2018-07-13T14:07:40.600Z,26.90
2018-07-13T14:10:08.894Z,26.90
2018-07-13T14:12:37.217Z,26.90
2018-07-13T14:15:05.927Z,26.80
2018-07-13T14:17:34.169Z,26.60
2018-07-13T14:20:02.418Z,26.50
2018-07-13T14:22:30.767Z,26.50
2018-07-13T14:24:58.999Z,26.20
2018-07-13T14:27:27.272Z,25.90
2018-07-13T14:29:55.494Z,26.00
2018-07-13T14:32:23.754Z,26.00
2018-07-13T14:34:52.130Z,25.70
2018-07-13T14:37:20.534Z,25.60
2018-07-13T14:39:48.888Z,25.30
2018-07-13T14:42:17.176Z,25.50
2018-07-13T14:44:45.485Z,25.60
2018-07-13T14:47:13.968Z,25.30
2018-07-13T14:52:10.169Z,25.50
2018-07-13T14:54:38.445Z,25.40
2018-07-13T14:57:06.690Z,25.30
2018-07-13T14:59:35.051Z,25.00
2018-07-13T15:02:03.384Z,25.10
2018-07-13T15:04:31.686Z,25.30
2018-07-13T15:07:00.111Z,25.40
2018-07-13T15:11:56.412Z,25.60
2018-07-13T15:14:24.773Z,25.60
2018-07-13T15:19:21.102Z,25.90
2018-07-13T15:21:49.536Z,25.70
2018-07-13T15:24:18.962Z,25.70
2018-07-13T15:29:15.185Z,25.60
2018-07-13T15:31:43.639Z,25.40
2018-07-13T15:34:11.944Z,25.30
2018-07-13T15:36:40.362Z,25.20
2018-07-13T15:41:37.055Z,25.00
2018-07-13T15:49:01.342Z,24.80
2018-07-13T15:51:29.584Z,24.80
2018-07-13T15:53:57.838Z,24.80
2018-07-13T15:56:26.067Z,24.80
2018-07-13T15:58:54.382Z,24.80
2018-07-13T16:01:22.578Z,24.90
2018-07-13T16:03:50.847Z,25.00
2018-07-13T16:06:19.131Z,25.10
2018-07-13T16:08:47.337Z,24.90
2018-07-13T16:11:15.606Z,25.00
2018-07-13T16:13:43.840Z,24.90
2018-07-13T16:16:12.171Z,24.90
2018-07-13T16:18:40.377Z,24.80
2018-07-13T16:21:08.639Z,24.90
2018-07-13T16:23:36.926Z,24.90
2018-07-13T16:26:05.270Z,24.80
2018-07-13T16:28:33.658Z,24.60
2018-07-13T16:31:02.229Z,24.60
2018-07-13T16:33:30.446Z,24.60
2018-07-13T16:35:58.702Z,24.40
2018-07-13T16:40:55.075Z,24.10
2018-07-13T16:43:23.440Z,24.00
2018-07-13T16:45:51.794Z,23.90
2018-07-13T16:50:48.090Z,23.70
2018-07-13T16:53:16.620Z,23.60
2018-07-13T16:55:44.926Z,23.60
2018-07-13T16:58:13.205Z,23.50
2018-07-13T17:00:41.460Z,23.60
2018-07-13T17:03:09.719Z,23.70
2018-07-13T17:05:37.931Z,23.50
2018-07-13T17:08:06.155Z,23.30
2018-07-13T17:13:02.426Z,23.10
2018-07-13T17:15:30.754Z,23.00
2018-07-13T17:17:59.025Z,22.90
2018-07-13T17:20:27.435Z,23.00
2018-07-13T17:22:55.681Z,23.00
2018-07-13T17:25:24.115Z,22.80
2018-07-13T17:27:52.409Z,22.70
2018-07-13T17:30:20.710Z,22.80
2018-07-13T17:32:48.966Z,22.80
2018-07-13T17:40:13.260Z,22.60
2018-07-13T17:42:41.637Z,22.60
2018-07-13T17:50:19.271Z,22.60
2018-07-13T17:52:47.606Z,22.50
2018-07-13T17:57:43.869Z,22.40
2018-07-13T18:00:12.142Z,22.30
2018-07-13T18:02:40.385Z,22.30
2018-07-13T18:05:08.679Z,22.30
2018-07-13T18:12:33.190Z,22.00
2018-07-13T18:15:01.459Z,21.90
2018-07-13T18:17:29.714Z,21.90
2018-07-13T18:19:58.041Z,22.00
2018-07-13T18:22:26.410Z,21.90
2018-07-13T18:24:55.142Z,21.90
2018-07-13T18:27:23.449Z,21.90
2018-07-13T18:34:47.904Z,21.70
2018-07-13T18:42:12.269Z,21.80
2018-07-13T18:44:40.630Z,21.60
2018-07-13T18:47:09.255Z,21.50
2018-07-13T18:49:37.574Z,21.50
2018-07-13T18:52:06.325Z,21.40
2018-07-13T18:54:34.627Z,21.40
2018-07-13T18:57:02.994Z,21.30
2018-07-13T19:04:27.740Z,21.10
2018-07-13T19:11:52.178Z,21.00
2018-07-13T19:14:20.470Z,21.00
2018-07-13T19:19:16.881Z,20.90
2018-07-13T19:21:45.442Z,20.70
2018-07-13T19:24:13.769Z,20.70
2018-07-13T19:26:42.044Z,20.70
2018-07-13T19:29:10.334Z,20.60
2018-07-13T19:31:38.674Z,20.50
2018-07-13T19:36:35.044Z,20.50
2018-07-13T19:39:03.773Z,20.40
2018-07-13T19:41:32.059Z,20.40
2018-07-13T19:44:00.355Z,20.40
2018-07-13T19:46:28.686Z,20.20
2018-07-13T19:48:56.933Z,20.30
2018-07-13T19:53:53.187Z,20.30
2018-07-13T19:56:21.436Z,20.20
2018-07-13T19:58:49.729Z,20.10
2018-07-13T20:03:46.126Z,20.00
2018-07-13T20:08:42.666Z,19.90
2018-07-13T20:13:39.187Z,19.80
2018-07-13T20:16:07.634Z,19.80
2018-07-13T20:18:35.917Z,19.80
2018-07-13T20:23:32.204Z,19.70
2018-07-13T20:26:00.418Z,19.60
2018-07-13T20:28:28.702Z,19.60
2018-07-13T20:30:56.973Z,19.60
2018-07-13T20:33:25.320Z,19.60
2018-07-13T20:35:53.701Z,19.60
2018-07-13T20:38:21.931Z,19.60
2018-07-13T20:43:18.330Z,19.60
2018-07-13T20:45:46.610Z,19.50
2018-07-13T20:48:14.901Z,19.50
2018-07-13T20:53:11.198Z,19.30
2018-07-13T20:55:39.524Z,19.20
2018-07-13T20:58:08.286Z,19.20
2018-07-13T21:00:36.694Z,19.10
2018-07-13T21:03:05.053Z,19.10
2018-07-13T21:10:29.356Z,19.10
2018-07-13T21:12:57.609Z,19.00
2018-07-13T21:15:25.933Z,18.90
2018-07-13T21:17:54.249Z,18.90
2018-07-13T21:20:22.657Z,18.80
2018-07-13T21:22:50.838Z,18.80
2018-07-13T21:25:19.150Z,18.80
2018-07-13T21:27:47.471Z,18.80
2018-07-13T21:32:43.745Z,18.60
2018-07-13T21:35:12.008Z,18.50
2018-07-13T21:37:40.296Z,18.50
2018-07-13T21:40:08.564Z,18.40
2018-07-13T21:42:36.906Z,18.40
2018-07-13T21:47:33.257Z,18.50
2018-07-13T21:50:01.621Z,18.40
2018-07-13T21:52:29.849Z,18.40
2018-07-13T21:54:58.091Z,18.40
2018-07-13T21:57:26.298Z,18.20
2018-07-13T21:59:54.529Z,18.00
2018-07-13T22:02:22.901Z,18.10
2018-07-13T22:04:51.174Z,18.20
2018-07-13T22:09:47.479Z,18.20
2018-07-13T22:12:15.750Z,18.20
2018-07-13T22:17:12.143Z,18.20
2018-07-13T22:19:40.418Z,18.20
2018-07-13T22:22:08.957Z,18.20
2018-07-13T22:24:37.323Z,18.20
2018-07-13T22:27:05.773Z,18.10
2018-07-13T22:29:34.034Z,18.00
2018-07-13T22:32:02.286Z,18.10
2018-07-13T22:34:30.580Z,18.00
2018-07-13T22:39:26.930Z,18.00
2018-07-13T22:41:55.202Z,17.90
2018-07-13T22:46:51.447Z,17.90
2018-07-13T22:49:19.669Z,17.90
2018-07-13T22:51:47.915Z,17.90
2018-07-13T22:54:16.202Z,18.00
2018-07-13T22:56:44.437Z,17.90
2018-07-13T23:01:40.615Z,17.80
2018-07-13T23:04:08.860Z,17.70
2018-07-13T23:06:37.073Z,17.70
2018-07-13T23:09:05.808Z,17.70
2018-07-13T23:11:34.069Z,17.70
2018-07-13T23:14:02.386Z,17.70
2018-07-13T23:16:30.644Z,17.60
2018-07-13T23:18:59.393Z,17.60
2018-07-13T23:23:55.729Z,17.50
2018-07-13T23:26:24.004Z,17.50
2018-07-13T23:28:52.337Z,17.50
2018-07-13T23:31:20.618Z,17.40
2018-07-13T23:36:16.905Z,17.40
2018-07-13T23:38:45.222Z,17.40
2018-07-13T23:41:13.489Z,17.30
2018-07-13T23:43:41.803Z,17.30
2018-07-13T23:46:10.083Z,17.30
2018-07-13T23:48:38.325Z,17.30
2018-07-13T23:51:06.544Z,17.30
2018-07-13T23:53:34.762Z,17.30
2018-07-13T23:56:03.073Z,17.30
2018-07-13T23:58:31.364Z,17.30
